Hoytville, Ohio
Current Conditions -  °F | °C
As of 4:53 PM on Wednesday 28 Jan 2015 (Local Time) from KFDY Reporting Station
Clear Clear  
Wind Chill: 14°   Ceiling: Unl
Heat Index: 24°   Visibility: 10mi
Dew Point: 14°   Wind: 10mph
Humidity: 65%   Direction: 140°SE
Pressure: 30.26"   Gusts: NA
Location:  41.19°N, 83.78°W
Report Text: KFDY 282153Z AUTO 14009KT 10SM CLR M04/M10 A3026 RMK AO2 SLP258 T10441100
Loading
Personal Weather Stations






























Interactive Weather Map New forecast layout! Learn more

10-Day Weather Forecast

Advertisements
Track Severe Weather on mobile